Time;durP1;ratioP1;P1;durP2;ratioP2;P2;SDS_P1;SDS_P2;PMS_P1;PMS_P2;Temp;Humidity;BMP_temperature;BMP_pressure;BME280_temperature;BME280_humidity;BME280_pressure;Samples;Min_cycle;Max_cycle;Signal;HPM_P1;HPM_P2
2023/12/02 00:01:02;;;;;;;;;4.20;4.20;;;;;16.89;36.49;97705.09;5151803;27;8857;-73
2023/12/02 00:03:36;;;;;;;;;5.00;5.00;;;;;16.84;37.05;97701.94;5151769;27;8872;-75
2023/12/02 00:06:06;;;;;;;;;6.40;6.00;;;;;16.77;37.33;97698.06;5133116;27;9610;-73
2023/12/02 00:08:35;;;;;;;;;6.20;6.20;;;;;16.57;37.76;97689.81;5115596;27;8934;-75
2023/12/02 00:11:04;;;;;;;;;6.00;5.80;;;;;16.48;38.14;97684.38;5151716;27;8837;-73
2023/12/02 00:13:33;;;;;;;;;6.40;5.60;;;;;16.49;38.30;97681.56;5132968;27;8861;-74
2023/12/02 00:16:02;;;;;;;;;8.20;8.00;;;;;16.33;38.62;97683.66;5133371;27;8869;-74
2023/12/02 00:18:31;;;;;;;;;5.20;5.20;;;;;16.31;38.59;97682.94;5151622;27;9650;-74
2023/12/02 00:21:01;;;;;;;;;7.00;6.60;;;;;16.30;38.87;97692.69;5151246;27;8837;-73
2023/12/02 00:23:30;;;;;;;;;6.40;6.00;;;;;16.23;38.79;97688.81;5151244;27;9609;-74
2023/12/02 00:25:59;;;;;;;;;7.80;6.80;;;;;16.29;38.70;97695.47;5151094;27;8833;-73
2023/12/02 00:28:28;;;;;;;;;8.00;8.00;;;;;16.24;38.98;97695.78;5098472;27;8876;-74
2023/12/02 00:30:58;;;;;;;;;8.80;8.80;;;;;16.20;38.96;97691.69;5150787;27;8868;-73
2023/12/02 00:33:27;;;;;;;;;7.00;6.40;;;;;16.23;38.91;97694.13;5131851;27;8953;-76
2023/12/02 00:35:56;;;;;;;;;7.40;7.40;;;;;16.28;38.52;97691.13;5150946;27;8901;-73
2023/12/02 00:38:28;;;;;;;;;7.40;7.40;;;;;16.15;38.79;97702.63;5150816;27;11151;-73
2023/12/02 00:40:57;;;;;;;;;6.60;6.60;;;;;16.01;38.75;97708.09;5150869;27;8861;-74
2023/12/02 00:43:26;;;;;;;;;6.60;6.20;;;;;16.14;38.10;97711.53;5150879;27;8955;-75
2023/12/02 00:45:56;;;;;;;;;5.80;5.80;;;;;16.02;38.15;97708.00;5150776;27;8975;-73
2023/12/02 00:48:24;;;;;;;;;4.00;3.00;;;;;16.21;37.54;97704.00;5151109;27;8841;-74
2023/12/02 00:50:53;;;;;;;;;5.00;5.00;;;;;;;;5150815;27;8849;-73
2023/12/02 00:53:22;;;;;;;;;6.60;5.20;;;;;16.18;37.76;97712.16;5151039;27;8955;-73
2023/12/02 00:55:52;;;;;;;;;5.60;5.40;;;;;16.17;37.76;97698.06;5150776;27;8905;-74
2023/12/02 00:58:21;;;;;;;;;7.00;4.80;;;;;16.22;37.45;97698.56;5150783;27;8837;-72
2023/12/02 01:01:04;;;;;;;;;5.80;4.80;;;;;16.30;37.07;97697.16;5151305;27;8844;-72
2023/12/02 01:03:33;;;;;;;;;6.00;6.00;;;;;16.40;37.04;97688.41;5151119;27;8957;-72
2023/12/02 01:06:02;;;;;;;;;6.40;5.80;;;;;16.43;36.90;97693.47;5150517;27;8841;-72
2023/12/02 01:08:31;;;;;;;;;4.00;3.80;;;;;16.53;36.58;97700.75;5150851;27;8887;-74
2023/12/02 01:11:02;;;;;;;;;4.00;4.00;;;;;16.64;36.33;97702.63;5150843;27;8837;-73
2023/12/02 01:13:31;;;;;;;;;2.60;2.60;;;;;16.66;36.11;97706.00;5097783;27;8857;-72
2023/12/02 01:16:00;;;;;;;;;3.60;3.60;;;;;16.61;36.47;97715.16;5150364;27;8825;-73
2023/12/02 01:18:29;;;;;;;;;4.60;3.20;;;;;16.72;36.42;97713.47;5150361;27;8888;-73
2023/12/02 01:20:58;;;;;;;;;3.80;3.80;;;;;16.75;36.52;97711.44;5150354;27;8853;-73
2023/12/02 01:23:27;;;;;;;;;4.80;3.80;;;;;16.73;36.84;97717.84;5150454;27;9093;-74
2023/12/02 01:25:56;;;;;;;;;5.00;3.40;;;;;16.69;37.24;97713.72;5150214;27;9690;-73
2023/12/02 01:28:26;;;;;;;;;3.60;3.60;;;;;16.66;37.41;97717.44;5096914;27;8952;-73
2023/12/02 01:30:55;;;;;;;;;4.80;4.40;;;;;16.63;37.27;97707.09;5131555;27;8837;-73
2023/12/02 01:33:24;;;;;;;;;6.60;5.40;;;;;16.58;37.28;97695.97;5150260;27;8829;-73
2023/12/02 01:35:53;;;;;;;;;3.20;3.00;;;;;16.56;37.15;97684.63;5150136;27;8856;-73
2023/12/02 01:38:22;;;;;;;;;4.80;4.80;;;;;16.49;37.12;97678.09;5113599;27;8853;-73
2023/12/02 01:40:51;;;;;;;;;4.00;4.00;;;;;16.50;37.12;97675.31;5149925;27;8849;-72
2023/12/02 01:43:25;;;;;;;;;3.40;3.40;;;;;16.45;37.19;97688.06;5150136;27;9734;-73
2023/12/02 01:45:56;;;;;;;;;4.20;4.20;;;;;16.45;37.04;97679.28;5152536;27;8841;-73
2023/12/02 01:48:27;;;;;;;;;3.20;2.40;;;;;16.40;37.34;97677.78;5154330;27;8853;-73
2023/12/02 01:50:57;;;;;;;;;5.00;4.80;;;;;16.35;37.28;97685.25;5155024;27;8853;-72
2023/12/02 01:53:26;;;;;;;;;4.60;4.40;;;;;16.31;37.37;97678.47;5155423;27;8871;-72
2023/12/02 01:55:55;;;;;;;;;4.00;4.00;;;;;16.29;37.62;97676.91;5154200;27;9637;-73
2023/12/02 01:58:24;;;;;;;;;1.00;1.00;;;;;16.26;37.50;97675.31;5154206;27;8871;-72
2023/12/02 02:00:55;;;;;;;;;6.40;4.00;;;;;16.25;37.88;97675.44;5153886;27;8841;-73
2023/12/02 02:03:24;;;;;;;;;4.00;3.80;;;;;16.19;37.74;97668.78;5153887;27;8869;-74
2023/12/02 02:05:53;;;;;;;;;4.20;3.00;;;;;16.18;37.72;97665.28;5135582;27;8880;-72
2023/12/02 02:08:22;;;;;;;;;5.40;3.80;;;;;16.18;37.62;97656.50;5134637;27;8865;-73
2023/12/02 02:10:56;;;;;;;;;3.00;3.00;;;;;16.12;37.73;97654.31;5154267;27;9014;-73
2023/12/02 02:13:25;;;;;;;;;4.60;4.60;;;;;16.11;37.62;97666.69;5153843;27;8832;-74
2023/12/02 02:15:56;;;;;;;;;5.40;5.40;;;;;16.15;37.54;97657.59;5154182;27;8833;-73
2023/12/02 02:18:24;;;;;;;;;3.40;3.20;;;;;16.06;37.61;97663.56;5097075;27;8854;-73
2023/12/02 02:21:01;;;;;;;;;3.80;3.20;;;;;16.08;37.81;97658.13;5083912;27;8846;-73
2023/12/02 02:23:31;;;;;;;;;8.80;6.20;;;;;16.02;37.63;97656.78;5133380;27;9565;-73
2023/12/02 02:26:00;;;;;;;;;5.20;3.00;;;;;16.03;38.00;97653.16;5131870;27;8842;-73
2023/12/02 02:28:29;;;;;;;;;3.00;2.00;;;;;16.03;37.78;97638.09;5131566;27;8854;-74
2023/12/02 02:30:58;;;;;;;;;2.40;2.40;;;;;16.02;37.72;97644.38;5145106;27;8861;-72
2023/12/02 02:33:27;;;;;;;;;4.60;3.00;;;;;16.05;37.67;97656.56;5101279;27;8885;-72
2023/12/02 02:35:56;;;;;;;;;5.80;4.80;;;;;15.96;37.75;97676.63;5153582;27;8849;-76
2023/12/02 02:38:25;;;;;;;;;4.00;4.00;;;;;15.99;37.74;97679.03;5153197;27;8930;-73
2023/12/02 02:40:56;;;;;;;;;3.80;3.80;;;;;16.01;37.75;97682.44;5153306;27;8857;-73
2023/12/02 02:43:25;;;;;;;;;5.80;5.00;;;;;15.97;37.98;97665.06;5153449;27;8921;-75
2023/12/02 02:45:54;;;;;;;;;4.40;4.40;;;;;15.93;38.15;97676.00;5135829;27;8856;-73
2023/12/02 02:48:23;;;;;;;;;5.80;4.80;;;;;15.84;38.25;97670.41;5117418;27;8976;-71
2023/12/02 02:50:52;;;;;;;;;4.00;4.00;;;;;15.86;38.34;97656.22;5153427;27;8825;-73
2023/12/02 02:53:21;;;;;;;;;3.80;3.00;;;;;15.78;38.42;97649.66;5134577;27;8845;-72
2023/12/02 02:55:50;;;;;;;;;5.60;4.00;;;;;15.69;38.67;97655.63;5100058;27;8845;-72
2023/12/02 02:58:21;;;;;;;;;5.80;5.00;;;;;15.60;38.85;97621.84;5098980;27;8857;-74
2023/12/02 03:00:50;;;;;;;;;3.60;3.60;;;;;15.52;38.85;97624.19;5100382;27;8868;-73
2023/12/02 03:03:18;;;;;;;;;4.80;4.60;;;;;15.49;39.14;97621.75;5152889;27;9624;-73
2023/12/02 03:05:48;;;;;;;;;5.40;5.40;;;;;15.43;39.18;97618.63;5100108;27;8971;-73
2023/12/02 03:08:16;;;;;;;;;4.60;4.60;;;;;15.34;39.54;97613.97;5152949;27;8853;-74
2023/12/02 03:10:49;;;;;;;;;4.80;4.40;;;;;15.28;39.49;97613.56;5134711;27;8846;-73
2023/12/02 03:13:18;;;;;;;;;4.80;2.20;;;;;15.28;39.45;97617.03;5131863;27;10164;-74
2023/12/02 03:15:48;;;;;;;;;7.40;5.00;;;;;15.27;39.54;97596.00;5095791;27;8896;-72
2023/12/02 03:18:17;;;;;;;;;5.80;5.00;;;;;15.21;39.68;97592.81;5114743;27;9707;-75
2023/12/02 03:20:47;;;;;;;;;6.60;4.80;;;;;15.17;39.67;97609.00;5115223;27;8912;-72
2023/12/02 03:23:16;;;;;;;;;4.80;4.00;;;;;15.18;39.63;97610.72;5147959;27;8864;-74
2023/12/02 03:25:45;;;;;;;;;5.00;4.40;;;;;15.18;39.58;97613.38;5152733;27;8821;-73
2023/12/02 03:28:14;;;;;;;;;3.00;3.00;;;;;15.17;39.42;97612.53;5152763;27;8941;-72
2023/12/02 03:30:43;;;;;;;;;4.60;3.60;;;;;15.23;39.44;97611.25;5133892;27;8857;-74
2023/12/02 03:33:13;;;;;;;;;2.80;2.80;;;;;15.30;39.46;97627.53;5152687;27;8861;-72
2023/12/02 03:35:43;;;;;;;;;6.40;4.00;;;;;15.25;39.44;97622.56;5152014;27;8857;-75
2023/12/02 03:38:12;;;;;;;;;4.40;4.40;;;;;15.37;39.08;97626.97;5152373;27;8952;-73
2023/12/02 03:40:41;;;;;;;;;3.40;3.00;;;;;15.40;39.26;97615.34;5152150;27;9583;-73
2023/12/02 03:43:09;;;;;;;;;4.00;4.00;;;;;15.35;39.36;97609.53;5133634;27;8963;-74
2023/12/02 03:45:38;;;;;;;;;4.60;3.80;;;;;15.41;39.27;97609.06;5151964;27;8849;-71
2023/12/02 03:48:07;;;;;;;;;4.20;4.00;;;;;15.50;39.12;97607.56;5152094;27;8955;-73
2023/12/02 03:50:38;;;;;;;;;5.00;4.00;;;;;15.38;39.41;97604.84;5152306;27;8836;-73
2023/12/02 03:53:07;;;;;;;;;5.00;5.00;;;;;15.44;39.11;97604.41;5152149;27;8853;-75
2023/12/02 03:55:36;;;;;;;;;2.80;2.80;;;;;15.48;38.95;97583.84;5151972;27;8857;-74
2023/12/02 03:58:05;;;;;;;;;4.20;3.40;;;;;15.53;38.92;97572.91;5151688;27;8949;-74
2023/12/02 04:00:34;;;;;;;;;4.00;3.00;;;;;15.55;38.95;97584.25;5151740;27;8956;-76
2023/12/02 04:03:03;;;;;;;;;3.80;3.80;;;;;15.60;38.68;97588.31;5152451;27;8864;-74
2023/12/02 04:05:33;;;;;;;;;3.60;3.60;;;;;15.61;38.74;97605.03;5134530;27;8857;-73
2023/12/02 04:08:04;;;;;;;;;4.00;4.00;;;;;15.64;38.59;97602.13;5151711;27;8861;-72
2023/12/02 04:10:33;;;;;;;;;5.40;4.00;;;;;15.69;38.31;97607.94;5151671;27;8896;-72
2023/12/02 04:13:02;;;;;;;;;3.00;3.00;;;;;15.84;38.38;97612.13;5099556;27;8857;-73
2023/12/02 04:15:31;;;;;;;;;3.20;3.20;;;;;15.82;38.42;97616.69;5152373;27;8844;-73
2023/12/02 04:18:00;;;;;;;;;2.20;2.20;;;;;15.90;37.94;97610.81;5151696;27;8905;-73
2023/12/02 04:20:30;;;;;;;;;5.20;4.00;;;;;15.83;38.28;97614.88;5151794;27;8852;-73
2023/12/02 04:22:58;;;;;;;;;3.40;3.00;;;;;15.78;38.40;97609.94;5151420;27;8857;-75
2023/12/02 04:25:30;;;;;;;;;6.20;5.00;;;;;15.81;38.29;97608.84;5132819;27;8853;-74
2023/12/02 04:27:59;;;;;;;;;3.60;2.20;;;;;15.82;38.08;97622.00;5151163;27;8837;-73
2023/12/02 04:30:29;;;;;;;;;10.40;9.40;;;;;15.82;38.26;97606.09;5115545;27;9567;-72
2023/12/02 04:32:58;;;;;;;;;11.80;10.60;;;;;15.80;38.12;97604.53;5152008;27;9030;-74
2023/12/02 04:35:29;;;;;;;;;6.00;6.00;;;;;15.80;38.12;97610.66;5151107;27;8864;-73
2023/12/02 04:37:58;;;;;;;;;6.00;6.00;;;;;15.85;38.19;97605.03;5151016;27;8857;-72
2023/12/02 04:40:26;;;;;;;;;4.80;4.80;;;;;15.75;38.25;97606.66;5098523;27;8876;-73
2023/12/02 04:42:57;;;;;;;;;5.00;4.20;;;;;15.75;38.34;97606.66;5073548;28;8851;-73
2023/12/02 04:45:26;;;;;;;;;6.00;4.60;;;;;15.67;38.36;97603.75;5107271;28;8976;-73
2023/12/02 04:47:59;;;;;;;;;5.00;5.00;;;;;15.60;38.53;97609.50;5107667;28;8847;-71
2023/12/02 04:50:29;;;;;;;;;5.40;4.40;;;;;15.50;38.68;97618.16;5090489;28;8978;-73
2023/12/02 04:52:57;;;;;;;;;5.00;5.00;;;;;15.45;38.77;97610.53;5106848;28;8891;-72
2023/12/02 04:55:26;;;;;;;;;6.00;4.60;;;;;15.21;39.16;97595.47;5107031;28;8883;-73
2023/12/02 04:57:57;;;;;;;;;5.00;5.00;;;;;15.09;39.52;97588.38;5106805;28;8920;-76
2023/12/02 05:00:26;;;;;;;;;7.40;7.00;;;;;15.09;39.39;97583.09;5107106;28;8831;-73
2023/12/02 05:02:55;;;;;;;;;3.40;3.40;;;;;15.10;39.36;97586.63;5072933;28;8867;-71
2023/12/02 05:05:24;;;;;;;;;4.60;3.40;;;;;15.15;39.43;97601.22;5089914;28;9013;-74
2023/12/02 05:07:53;;;;;;;;;4.40;4.00;;;;;15.05;39.41;97594.84;5106832;28;8873;-74
2023/12/02 05:10:22;;;;;;;;;7.60;5.60;;;;;15.13;39.37;97589.03;5073172;28;8855;-73
2023/12/02 05:12:51;;;;;;;;;3.80;3.80;;;;;15.17;39.12;97599.31;5106791;28;8844;-74
2023/12/02 05:15:22;;;;;;;;;5.60;5.60;;;;;15.09;39.26;97598.13;5149769;27;8953;-74
2023/12/02 05:17:51;;;;;;;;;7.00;7.00;;;;;15.11;39.30;97604.16;5079946;27;8853;-73
2023/12/02 05:20:20;;;;;;;;;6.40;6.00;;;;;15.11;39.38;97598.88;5149713;27;8837;-74
2023/12/02 05:22:49;;;;;;;;;6.00;6.00;;;;;14.98;39.56;97591.81;5150351;27;8921;-74
2023/12/02 05:25:19;;;;;;;;;5.40;5.40;;;;;14.92;39.74;97575.50;5056256;28;8863;-74
2023/12/02 05:27:47;;;;;;;;;7.00;7.00;;;;;14.85;39.61;97569.81;5106629;28;8863;-73
2023/12/02 05:30:17;;;;;;;;;6.80;6.80;;;;;14.79;40.09;97576.38;5106301;28;8882;-73
2023/12/02 05:32:48;;;;;;;;;9.00;8.00;;;;;14.75;39.74;97566.94;5106499;28;8848;-73
2023/12/02 05:35:18;;;;;;;;;9.00;8.80;;;;;14.72;40.02;97563.66;5106339;28;8885;-73
2023/12/02 05:37:47;;;;;;;;;7.80;7.80;;;;;14.68;40.07;97563.03;5106376;28;8856;-74
2023/12/02 05:40:17;;;;;;;;;6.00;6.00;;;;;14.71;39.93;97569.91;5089339;28;8828;-72
2023/12/02 05:42:45;;;;;;;;;6.80;6.80;;;;;14.62;40.14;97580.16;5106145;28;8851;-73
2023/12/02 05:45:15;;;;;;;;;9.20;7.60;;;;;14.50;40.14;97573.06;5106318;28;8882;-74
2023/12/02 05:47:43;;;;;;;;;19.60;18.00;;;;;14.59;40.07;97575.09;5089022;28;8966;-72
2023/12/02 05:50:14;;;;;;;;;11.60;10.60;;;;;14.60;39.86;97573.28;5105897;28;8949;-74
2023/12/02 05:52:43;;;;;;;;;5.80;5.40;;;;;14.62;39.80;97571.38;5089254;28;8868;-72
2023/12/02 05:55:12;;;;;;;;;6.80;6.60;;;;;14.67;39.58;97569.25;5106170;28;8962;-74
2023/12/02 05:57:43;;;;;;;;;5.20;4.80;;;;;14.75;39.35;97563.47;5149014;27;8841;-72
2023/12/02 06:00:13;;;;;;;;;5.60;4.80;;;;;14.72;38.91;97561.91;5151195;27;8886;-75
2023/12/02 06:02:42;;;;;;;;;6.20;4.60;;;;;14.72;39.05;97567.19;5150692;27;8987;-74
2023/12/02 06:05:11;;;;;;;;;5.40;5.40;;;;;14.77;38.71;97574.78;5097156;27;8825;-74
2023/12/02 06:07:41;;;;;;;;;6.80;6.00;;;;;14.78;38.49;97564.09;5149891;27;8924;-73
2023/12/02 06:10:11;;;;;;;;;5.00;4.00;;;;;14.90;38.07;97570.31;5150169;27;8844;-73
2023/12/02 06:12:40;;;;;;;;;13.00;12.40;;;;;14.98;37.73;97577.72;5096272;27;8940;-74
2023/12/02 06:15:11;;;;;;;;;8.00;7.20;;;;;15.00;37.51;97570.50;5149748;27;8846;-76
2023/12/02 06:17:40;;;;;;;;;5.80;4.00;;;;;15.07;37.06;97579.72;5150070;27;9003;-73
2023/12/02 06:20:11;;;;;;;;;5.60;3.00;;;;;15.19;36.61;97576.22;5097016;27;8880;-76
2023/12/02 06:22:41;;;;;;;;;1.00;1.00;;;;;15.25;36.38;97590.81;5131005;27;8917;-74
2023/12/02 06:25:10;;;;;;;;;5.40;5.40;;;;;15.30;36.12;97587.81;5113718;27;8841;-73
2023/12/02 06:27:39;;;;;;;;;4.40;3.40;;;;;15.43;35.99;97586.84;5131131;27;8971;-75
2023/12/02 06:30:09;;;;;;;;;7.00;5.80;;;;;15.33;35.85;97600.84;5096772;27;8985;-75
2023/12/02 06:32:42;;;;;;;;;5.00;4.00;;;;;15.39;35.39;97603.03;5133748;27;8853;-72
2023/12/02 06:35:12;;;;;;;;;4.00;3.60;;;;;15.43;35.54;97604.50;5153933;27;8837;-73
2023/12/02 06:37:43;;;;;;;;;5.00;3.40;;;;;15.49;35.60;97606.75;5089099;28;8914;-72
2023/12/02 06:40:13;;;;;;;;;2.80;2.40;;;;;15.48;35.29;97598.91;5089223;28;8852;-75
2023/12/02 06:42:42;;;;;;;;;6.00;4.40;;;;;15.53;35.17;97594.09;5089062;28;8837;-73
2023/12/02 06:45:11;;;;;;;;;4.00;4.00;;;;;15.48;35.17;97594.44;5072418;28;9031;-74
2023/12/02 06:47:40;;;;;;;;;5.40;5.20;;;;;15.49;35.14;97587.34;5088986;28;8861;-72
2023/12/02 06:50:11;;;;;;;;;8.80;5.00;;;;;15.45;35.06;97587.56;5089336;28;9817;-74
2023/12/02 06:52:40;;;;;;;;;4.40;4.00;;;;;15.53;34.57;97576.44;5088807;28;8841;-72
2023/12/02 06:55:10;;;;;;;;;4.40;4.20;;;;;15.43;34.57;97586.84;5089100;28;9574;-74
2023/12/02 06:57:42;;;;;;;;;7.00;5.00;;;;;15.42;34.62;97589.59;5088714;28;9031;-73
2023/12/02 07:00:13;;;;;;;;;3.80;3.80;;;;;15.49;34.52;97584.69;5055420;28;8941;-72
2023/12/02 07:02:43;;;;;;;;;5.00;5.00;;;;;15.38;34.54;97583.69;5088883;28;8852;-72
2023/12/02 07:05:12;;;;;;;;;5.00;3.60;;;;;15.43;34.57;97588.63;5089102;28;8867;-73
2023/12/02 07:07:41;;;;;;;;;4.60;4.60;;;;;15.53;34.44;97579.06;5055100;28;8857;-75
2023/12/02 07:10:13;;;;;;;;;5.20;5.00;;;;;15.51;34.36;97601.31;5153281;27;8820;-73
2023/12/02 07:12:41;;;;;;;;;7.00;5.20;;;;;15.53;34.12;97587.03;5152570;27;8958;-72
2023/12/02 07:15:11;;;;;;;;;7.20;5.80;;;;;15.52;34.02;97587.97;5153035;27;8827;-74
2023/12/02 07:17:40;;;;;;;;;7.80;5.00;;;;;15.50;33.71;97579.28;5152643;27;8845;-73
2023/12/02 07:20:10;;;;;;;;;6.20;6.00;;;;;15.56;33.30;97567.41;5152759;27;8888;-73
2023/12/02 07:22:39;;;;;;;;;3.60;3.60;;;;;15.68;32.73;97553.31;5133896;27;8880;-75
2023/12/02 07:25:09;;;;;;;;;4.60;3.80;;;;;15.63;32.75;97566.88;5152836;27;8833;-73
2023/12/02 07:27:39;;;;;;;;;4.60;4.60;;;;;15.75;32.40;97562.47;5100162;27;8952;-73
2023/12/02 07:30:10;;;;;;;;;3.40;3.00;;;;;15.70;32.32;97564.63;5152595;27;8900;-74
2023/12/02 07:32:41;;;;;;;;;4.80;2.80;;;;;15.83;31.99;97568.06;5152439;27;8879;-72
2023/12/02 07:35:10;;;;;;;;;3.60;3.40;;;;;15.86;31.83;97556.38;5133920;27;8877;-74
2023/12/02 07:37:39;;;;;;;;;5.00;3.20;;;;;15.91;31.91;97564.84;5082570;27;8841;-74
2023/12/02 07:40:09;;;;;;;;;3.60;3.00;;;;;16.03;31.50;97566.56;5152301;27;8860;-74
2023/12/02 07:42:40;;;;;;;;;4.00;4.00;;;;;16.16;31.52;97566.47;5115840;27;8829;-74
2023/12/02 07:45:10;;;;;;;;;5.00;4.80;;;;;16.19;31.55;97562.75;5151925;27;8841;-75
2023/12/02 07:47:38;;;;;;;;;4.40;4.00;;;;;16.22;31.41;97544.78;5152031;27;8964;-73
2023/12/02 07:50:09;;;;;;;;;3.00;3.00;;;;;16.27;31.36;97548.94;5151615;27;8844;-73
2023/12/02 07:52:37;;;;;;;;;3.20;3.20;;;;;16.24;31.35;97555.28;5152267;27;8837;-76
2023/12/02 07:55:07;;;;;;;;;6.40;4.80;;;;;16.28;31.35;97553.25;5115559;27;8833;-74
2023/12/02 07:57:36;;;;;;;;;4.00;3.80;;;;;16.36;31.49;97569.41;5151517;27;9084;-73
2023/12/02 08:00:09;;;;;;;;;5.00;4.00;;;;;16.49;31.19;97564.03;5151832;27;8845;-72
2023/12/02 08:02:40;;;;;;;;;5.00;4.00;;;;;16.54;31.15;97573.34;5152093;27;8861;-73
2023/12/02 08:05:10;;;;;;;;;5.40;5.20;;;;;16.55;31.13;97567.09;5151840;27;8849;-73
2023/12/02 08:07:42;;;;;;;;;4.80;3.80;;;;;16.51;31.30;97568.28;5151667;27;9013;-74
2023/12/02 08:10:11;;;;;;;;;6.00;6.00;;;;;16.57;31.36;97578.41;5151477;27;8853;-73
2023/12/02 08:12:40;;;;;;;;;6.20;6.20;;;;;16.54;30.94;97578.66;5151188;27;8851;-73
2023/12/02 08:15:11;;;;;;;;;9.80;5.60;;;;;16.70;30.95;97578.31;5098606;27;9962;-73
2023/12/02 08:17:39;;;;;;;;;5.60;4.40;;;;;16.68;30.86;97584.69;5151604;27;8861;-74
2023/12/02 08:20:09;;;;;;;;;5.00;5.00;;;;;16.64;30.93;97584.06;5151245;27;8873;-73
2023/12/02 08:22:39;;;;;;;;;5.20;3.40;;;;;16.70;30.65;97580.09;5151402;27;8902;-74
2023/12/02 08:25:09;;;;;;;;;7.00;4.80;;;;;16.73;30.75;97587.84;5151095;27;8926;-75
2023/12/02 08:27:37;;;;;;;;;5.80;5.80;;;;;16.79;30.32;97595.31;5150910;27;8864;-73
2023/12/02 08:30:08;;;;;;;;;8.40;5.80;;;;;16.79;30.30;97597.97;5132372;27;8927;-75
2023/12/02 08:32:38;;;;;;;;;7.00;7.00;;;;;16.83;30.32;97596.75;5151091;27;8829;-73
2023/12/02 08:35:08;;;;;;;;;7.80;6.80;;;;;16.92;30.45;97592.56;5150814;27;8825;-74
2023/12/02 08:37:36;;;;;;;;;7.20;6.80;;;;;16.88;30.30;97599.06;5150926;27;8876;-73
2023/12/02 08:40:08;;;;;;;;;5.80;5.80;;;;;16.98;30.21;97587.63;5150542;27;9542;-72
2023/12/02 08:42:36;;;;;;;;;6.00;5.40;;;;;16.96;29.97;97597.47;5114930;27;8895;-73
2023/12/02 08:45:06;;;;;;;;;6.40;5.80;;;;;16.99;30.17;97591.94;5151621;27;8949;-73
2023/12/02 08:47:35;;;;;;;;;4.80;4.80;;;;;16.97;30.19;97593.88;5098166;27;8859;-73
2023/12/02 08:50:07;;;;;;;;;7.40;6.00;;;;;17.00;29.96;97592.78;5132221;27;8852;-73
2023/12/02 08:52:36;;;;;;;;;3.00;1.20;;;;;16.96;30.05;97586.88;5098389;27;8833;-73
2023/12/02 08:55:06;;;;;;;;;5.00;4.00;;;;;16.99;29.88;97583.97;5149750;27;8852;-74
2023/12/02 08:57:35;;;;;;;;;7.00;6.20;;;;;16.99;30.08;97589.28;5150249;27;8853;-73
2023/12/02 09:00:05;;;;;;;;;5.20;5.20;;;;;16.93;29.89;97589.78;5131905;27;8829;-74
2023/12/02 09:02:35;;;;;;;;;4.40;3.60;;;;;17.00;29.71;97576.84;5150234;27;8884;-74
2023/12/02 09:05:08;;;;;;;;;5.80;5.40;;;;;17.16;29.55;97587.13;5150363;27;8833;-74
2023/12/02 09:07:37;;;;;;;;;5.20;4.40;;;;;17.10;29.50;97558.41;5114271;27;8821;-75
2023/12/02 09:10:08;;;;;;;;;6.40;5.20;;;;;17.07;29.58;97578.06;5150071;27;8853;-74
2023/12/02 09:12:36;;;;;;;;;5.80;5.60;;;;;17.12;29.58;97570.59;5150354;27;8937;-74
2023/12/02 09:15:08;;;;;;;;;4.60;4.60;;;;;17.14;29.50;97573.13;5150080;27;8883;-75
2023/12/02 09:18:07;;;;;;;;;7.20;6.00;;;;;17.30;29.36;97568.28;5150051;27;9034;-73
2023/12/02 09:20:45;;;;;;;;;7.60;6.20;;;;;17.23;29.52;97582.16;5149658;27;8841;-74
2023/12/02 09:23:16;;;;;;;;;8.60;5.00;;;;;17.23;29.51;97569.75;5149992;27;8940;-77
2023/12/02 09:25:47;;;;;;;;;9.60;8.60;;;;;17.28;29.50;97570.22;5149609;27;8925;-74
2023/12/02 09:28:18;;;;;;;;;9.00;8.00;;;;;17.37;29.45;97566.84;5131462;27;8860;-74
2023/12/02 09:31:02;;;;;;;;;7.40;7.20;;;;;17.53;29.19;97561.16;5149990;27;8925;-74
2023/12/02 09:33:38;;;;;;;;;4.60;4.60;;;;;17.49;29.19;97561.50;5150341;27;8846;-74
2023/12/02 09:36:31;;;;;;;;;6.80;6.00;;;;;17.78;28.83;97567.94;5149697;27;9608;-74
2023/12/02 09:39:32;;;;;;;;;7.80;7.00;;;;;17.95;28.90;97555.91;5150226;27;8847;-74
2023/12/02 09:42:05;;;;;;;;;7.00;6.20;;;;;18.07;28.70;97543.44;5149975;27;8861;-73
2023/12/02 09:44:42;;;;;;;;;9.40;8.80;;;;;18.24;28.52;97535.84;5113416;27;8851;-74
2023/12/02 09:47:18;;;;;;;;;7.80;6.60;;;;;18.32;28.25;97542.19;5149997;27;9052;-74
2023/12/02 09:50:04;;;;;;;;;4.60;4.00;;;;;18.39;28.21;97531.88;5150141;27;8843;-74
2023/12/02 09:52:57;;;;;;;;;11.40;9.60;;;;;18.65;27.89;97540.28;5149115;27;8853;-74
2023/12/02 09:55:35;;;;;;;;;10.80;8.40;;;;;18.86;27.92;97544.78;5065179;28;8850;-74
2023/12/02 09:58:21;;;;;;;;;6.40;6.40;;;;;18.99;27.66;97542.72;5065107;28;8833;-74
2023/12/02 10:00:53;;;;;;;;;7.80;7.00;;;;;19.15;27.34;97536.88;5065385;28;8882;-76
2023/12/02 10:04:03;;;;;;;;;6.80;5.40;;;;;19.58;26.98;97527.72;5065123;28;9590;-76
2023/12/02 10:06:48;;;;;;;;;7.40;5.40;;;;;19.80;26.62;97531.09;5026913;28;8883;-73
2023/12/02 10:09:40;;;;;;;;;7.60;7.20;;;;;19.96;26.50;97523.38;5029324;28;8892;-72
2023/12/02 10:12:33;;;;;;;;;8.40;6.00;;;;;20.12;26.50;97517.47;5029606;28;8845;-74
2023/12/02 10:15:05;;;;;;;;;8.20;6.80;;;;;20.25;26.50;97510.03;5012850;28;8845;-75
2023/12/02 10:17:40;;;;;;;;;7.00;6.40;;;;;20.28;26.05;97496.41;5029159;28;8984;-74
2023/12/02 10:20:12;;;;;;;;;4.40;4.40;;;;;20.38;26.32;97500.88;5028926;28;8971;-74
2023/12/02 10:22:45;;;;;;;;;9.00;8.20;;;;;20.42;26.23;97504.94;5029215;28;8857;-76
2023/12/02 10:25:32;;;;;;;;;9.40;8.20;;;;;20.53;25.72;97485.25;5028983;28;8838;-76
2023/12/02 10:28:12;;;;;;;;;7.60;7.40;;;;;20.73;25.82;97494.00;5028590;28;8943;-75
2023/12/02 10:30:46;;;;;;;;;8.00;6.20;;;;;20.89;25.64;97488.88;5029068;28;8853;-76
2023/12/02 10:33:27;;;;;;;;;8.80;6.40;;;;;21.04;25.38;97478.56;5052081;28;9708;-73
2023/12/02 10:36:02;;;;;;;;;7.80;6.60;;;;;20.90;25.14;97485.25;5089064;28;8842;-76
2023/12/02 10:38:46;;;;;;;;;5.00;4.40;;;;;21.16;25.23;97473.84;5149751;27;8857;-75
2023/12/02 10:41:27;;;;;;;;;6.20;6.00;;;;;21.09;25.02;97467.44;5153010;27;8845;-74
2023/12/02 10:43:59;;;;;;;;;9.20;7.40;;;;;20.94;25.32;97473.28;5099949;27;8841;-76
2023/12/02 10:46:30;;;;;;;;;10.00;8.80;;;;;20.96;25.23;97473.16;5152846;27;8951;-75
2023/12/02 10:49:01;;;;;;;;;8.80;8.00;;;;;20.95;24.90;97480.28;5100031;27;9598;-76
2023/12/02 10:51:35;;;;;;;;;8.00;7.20;;;;;20.73;25.07;97486.88;5152826;27;8825;-73
2023/12/02 10:54:06;;;;;;;;;10.00;8.40;;;;;21.15;24.98;97480.22;5117135;27;8880;-78
2023/12/02 10:56:39;;;;;;;;;7.80;6.00;;;;;21.11;24.61;97454.78;5098878;27;8856;-74
2023/12/02 10:59:10;;;;;;;;;8.20;7.00;;;;;21.15;24.85;97466.84;5153390;27;8888;-75
2023/12/02 11:01:45;;;;;;;;;6.00;6.00;;;;;21.11;24.98;97460.97;5153551;27;8868;-75
2023/12/02 11:04:24;;;;;;;;;7.00;6.40;;;;;21.21;25.05;97467.06;5099764;27;8857;-75
2023/12/02 11:06:58;;;;;;;;;8.80;8.20;;;;;21.27;25.06;97452.25;5101298;27;8853;-75
2023/12/02 11:09:36;;;;;;;;;7.80;7.60;;;;;21.43;24.87;97448.94;5099005;27;8841;-74
2023/12/02 11:12:19;;;;;;;;;5.00;5.00;;;;;21.39;24.97;97453.75;5152496;27;8845;-75
2023/12/02 11:14:54;;;;;;;;;7.80;7.00;;;;;21.33;24.68;97445.47;5152184;27;8857;-75
2023/12/02 11:17:32;;;;;;;;;10.80;9.00;;;;;21.26;24.77;97453.28;5151645;27;8845;-74
2023/12/02 11:20:09;;;;;;;;;8.20;7.00;;;;;21.26;25.22;97446.09;5133597;27;8845;-74
2023/12/02 11:23:20;;;;;;;;;8.00;8.00;;;;;21.36;24.94;97432.66;5152080;27;9606;-75
2023/12/02 11:26:11;;;;;;;;;6.20;5.40;;;;;21.45;25.25;97431.75;5027649;28;8965;-74
2023/12/02 11:28:57;;;;;;;;;7.00;5.20;;;;;21.34;24.95;97417.78;4994521;28;9059;-73
2023/12/02 11:31:41;;;;;;;;;6.60;6.00;;;;;21.33;25.14;97414.25;5042620;28;8849;-72
2023/12/02 11:34:40;;;;;;;;;6.40;6.40;;;;;21.23;25.04;97387.59;5047577;28;8830;-74
2023/12/02 11:37:25;;;;;;;;;10.20;8.00;;;;;21.20;25.47;97395.06;5047449;28;9000;-74
2023/12/02 11:40:14;;;;;;;;;8.20;7.00;;;;;21.09;25.58;97382.81;4998587;28;8916;-74
2023/12/02 11:42:52;;;;;;;;;5.00;5.00;;;;;20.99;25.77;97395.38;5063776;28;8861;-76
2023/12/02 11:45:27;;;;;;;;;6.00;6.00;;;;;20.98;25.42;97397.22;5047552;28;8866;-76
2023/12/02 11:48:17;;;;;;;;;7.20;6.20;;;;;21.21;25.55;97383.41;5030895;28;8976;-74
2023/12/02 11:51:11;;;;;;;;;9.20;9.20;;;;;21.15;25.22;97384.03;5047045;28;8880;-75
2023/12/02 11:53:55;;;;;;;;;8.40;8.40;;;;;21.23;25.09;97387.59;5046907;28;8884;-74
2023/12/02 11:56:26;;;;;;;;;3.40;3.40;;;;;21.19;25.37;97396.91;5047187;28;8955;-76
2023/12/02 11:58:58;;;;;;;;;8.80;8.20;;;;;21.26;25.36;97395.31;5013920;28;8842;-75
2023/12/02 12:01:52;;;;;;;;;9.20;7.60;;;;;21.36;25.18;97408.59;5055091;28;8844;-74
2023/12/02 12:04:41;;;;;;;;;10.20;8.20;;;;;21.24;25.39;97399.97;5131158;27;8825;-74